createdAt,value
2023-04-20T00:01:15.652Z,7.68
2023-04-20T00:03:42.726Z,7.38
2023-04-20T00:06:09.679Z,7.00
2023-04-20T00:08:36.605Z,9.73
2023-04-20T00:11:03.837Z,8.82
2023-04-20T00:13:30.978Z,7.53
2023-04-20T00:15:57.920Z,8.02
2023-04-20T00:18:24.828Z,8.02
2023-04-20T00:20:51.752Z,7.05
2023-04-20T00:23:18.722Z,8.27
2023-04-20T00:25:45.648Z,8.35
2023-04-20T00:28:12.562Z,8.52
2023-04-20T00:30:41.143Z,8.85
2023-04-20T00:33:08.305Z,9.00
2023-04-20T00:35:35.449Z,8.75
2023-04-20T00:38:02.390Z,9.15
2023-04-20T00:40:29.948Z,9.75
2023-04-20T00:42:57.220Z,11.38
2023-04-20T00:45:24.301Z,8.95
2023-04-20T00:47:51.753Z,11.02
2023-04-20T00:50:18.919Z,12.32
2023-04-20T00:52:46.836Z,12.32
2023-04-20T00:55:13.956Z,10.90
2023-04-20T00:57:41.622Z,10.40
2023-04-20T01:00:09.662Z,10.77
2023-04-20T01:02:37.966Z,11.23
2023-04-20T01:05:08.398Z,11.88
2023-04-20T01:07:35.387Z,12.18
2023-04-20T01:10:02.633Z,12.13
2023-04-20T01:12:30.628Z,9.93
2023-04-20T01:14:57.647Z,11.85
2023-04-20T01:17:24.641Z,9.30
2023-04-20T01:19:51.691Z,9.65
2023-04-20T01:22:21.974Z,10.13
2023-04-20T01:24:49.001Z,9.38
2023-04-20T01:27:17.155Z,8.75
2023-04-20T01:29:44.725Z,8.02
2023-04-20T01:32:12.170Z,9.38
2023-04-20T01:34:40.886Z,8.18
2023-04-20T01:37:09.023Z,8.10
2023-04-20T01:39:37.759Z,8.13
2023-04-20T01:42:05.780Z,8.57
2023-04-20T01:44:32.748Z,7.68
2023-04-20T01:46:59.972Z,8.75
2023-04-20T01:49:27.120Z,9.07
2023-04-20T01:51:54.258Z,8.38
2023-04-20T01:54:21.923Z,9.10
2023-04-20T01:56:48.914Z,7.95
2023-04-20T01:59:16.224Z,8.82
2023-04-20T02:01:43.404Z,8.18
2023-04-20T02:04:10.669Z,9.48
2023-04-20T02:06:40.893Z,9.38
2023-04-20T02:09:10.169Z,8.40
2023-04-20T02:11:37.114Z,9.73
2023-04-20T02:14:06.344Z,9.55
2023-04-20T02:16:35.511Z,10.07
2023-04-20T02:19:03.520Z,6.57
2023-04-20T02:21:31.459Z,8.00
2023-04-20T02:23:58.393Z,9.23
2023-04-20T02:26:27.419Z,10.68
2023-04-20T02:28:54.453Z,10.85
2023-04-20T02:31:21.452Z,10.23
2023-04-20T02:33:49.990Z,10.70
2023-04-20T02:36:16.995Z,10.25
2023-04-20T02:38:44.095Z,10.00
2023-04-20T02:41:11.009Z,10.95
2023-04-20T02:43:38.040Z,13.35
2023-04-20T02:46:05.390Z,16.75
2023-04-20T02:48:32.445Z,20.35
2023-04-20T02:51:00.046Z,19.92
2023-04-20T02:53:32.005Z,16.40
2023-04-20T02:56:12.040Z,17.27
2023-04-20T02:58:43.822Z,17.90
2023-04-20T03:01:37.305Z,14.05
2023-04-20T03:04:25.954Z,14.07
2023-04-20T03:07:00.422Z,14.40
2023-04-20T03:09:30.051Z,11.90
2023-04-20T03:12:13.329Z,15.70
2023-04-20T03:15:07.304Z,14.05
2023-04-20T03:18:00.298Z,11.35
2023-04-20T03:20:27.671Z,11.50
2023-04-20T03:22:54.681Z,12.80
2023-04-20T03:25:24.584Z,12.18
2023-04-20T03:28:06.181Z,13.32
2023-04-20T03:30:33.571Z,12.05
2023-04-20T03:33:05.774Z,11.75
2023-04-20T03:35:32.816Z,13.32
2023-04-20T03:38:00.063Z,11.50
2023-04-20T03:40:27.223Z,13.82
2023-04-20T03:42:54.221Z,13.18
2023-04-20T03:45:21.215Z,13.10
2023-04-20T03:47:49.557Z,13.30
2023-04-20T03:50:16.566Z,12.98
2023-04-20T03:52:43.473Z,13.13
2023-04-20T03:55:11.727Z,13.32
2023-04-20T03:57:45.681Z,12.68
2023-04-20T04:00:14.180Z,12.18
2023-04-20T04:02:47.242Z,11.10
2023-04-20T04:05:19.700Z,11.57
2023-04-20T04:07:49.532Z,13.10
2023-04-20T04:10:18.882Z,11.55
2023-04-20T04:12:46.295Z,11.15
2023-04-20T04:15:13.595Z,11.48
2023-04-20T04:17:49.081Z,11.07
2023-04-20T04:20:16.223Z,11.82
2023-04-20T04:22:46.659Z,15.30
2023-04-20T04:25:42.277Z,11.00
2023-04-20T04:28:11.816Z,12.48
2023-04-20T04:30:47.715Z,10.40
2023-04-20T04:33:15.052Z,12.00
2023-04-20T04:35:45.608Z,9.23
2023-04-20T04:38:14.085Z,11.57
2023-04-20T04:40:45.904Z,12.23
2023-04-20T04:43:13.412Z,12.77
2023-04-20T04:45:49.885Z,11.23
2023-04-20T04:48:19.014Z,12.68
2023-04-20T04:50:46.716Z,14.55
2023-04-20T04:53:13.729Z,11.50
2023-04-20T04:55:40.657Z,12.38
2023-04-20T04:58:07.556Z,13.57
2023-04-20T05:00:34.558Z,12.15
2023-04-20T05:03:01.647Z,15.60
2023-04-20T05:05:28.810Z,14.25
2023-04-20T05:07:55.872Z,13.65
2023-04-20T05:10:22.896Z,14.02
2023-04-20T05:12:49.867Z,15.55
2023-04-20T05:15:17.956Z,16.40
2023-04-20T05:17:45.277Z,16.75
2023-04-20T05:20:12.432Z,16.02
2023-04-20T05:22:39.419Z,15.90
2023-04-20T05:25:06.888Z,17.60
2023-04-20T05:27:34.246Z,15.23
2023-04-20T05:30:13.133Z,13.77
2023-04-20T05:32:44.011Z,15.98
2023-04-20T05:35:11.053Z,17.42
2023-04-20T05:37:37.994Z,17.35
2023-04-20T05:40:05.557Z,16.88
2023-04-20T05:42:32.549Z,15.60
2023-04-20T05:44:59.510Z,17.13
2023-04-20T05:47:27.547Z,16.60
2023-04-20T05:49:54.586Z,17.80
2023-04-20T05:52:21.573Z,17.58
2023-04-20T05:54:49.766Z,15.88
2023-04-20T05:57:16.772Z,17.73
2023-04-20T05:59:44.170Z,17.23
2023-04-20T06:02:11.216Z,16.13
2023-04-20T06:04:38.359Z,17.33
2023-04-20T06:07:05.483Z,16.85
2023-04-20T06:09:32.455Z,18.15
2023-04-20T06:12:00.747Z,17.90
2023-04-20T06:14:27.758Z,14.57
2023-04-20T06:16:54.712Z,17.00
2023-04-20T06:19:21.704Z,18.00
2023-04-20T06:21:48.692Z,19.10
2023-04-20T06:24:15.743Z,17.23
2023-04-20T06:26:42.709Z,18.40
2023-04-20T06:29:09.618Z,16.48
2023-04-20T06:31:36.649Z,16.55
2023-04-20T06:34:03.573Z,17.75
2023-04-20T06:36:31.214Z,19.13
2023-04-20T06:38:58.163Z,17.50
2023-04-20T06:41:25.268Z,17.52
2023-04-20T06:43:52.180Z,16.55
2023-04-20T06:46:19.206Z,18.35
2023-04-20T06:48:46.243Z,18.23
2023-04-20T06:51:14.217Z,22.08
2023-04-20T06:53:41.159Z,20.88
2023-04-20T06:56:08.352Z,18.00
2023-04-20T06:58:35.406Z,18.38
2023-04-20T07:01:02.556Z,19.02
2023-04-20T07:03:29.599Z,20.02
2023-04-20T07:05:56.597Z,17.27
2023-04-20T07:08:23.564Z,20.75
2023-04-20T07:10:50.601Z,16.25
2023-04-20T07:13:17.562Z,17.42
2023-04-20T07:15:45.892Z,16.77
2023-04-20T07:18:12.923Z,14.68
2023-04-20T07:20:39.999Z,15.05
2023-04-20T07:23:06.948Z,16.55
2023-04-20T07:25:33.942Z,14.05
2023-04-20T07:28:00.960Z,14.27
2023-04-20T07:30:28.010Z,17.60
2023-04-20T07:32:55.000Z,18.85
2023-04-20T07:35:22.243Z,35.78
2023-04-20T07:37:49.165Z,18.50
2023-04-20T07:40:17.107Z,14.10
2023-04-20T07:42:44.080Z,15.02
2023-04-20T07:45:12.404Z,14.75
2023-04-20T07:47:39.398Z,15.07
2023-04-20T07:50:07.949Z,13.90
2023-04-20T07:52:35.793Z,16.25
2023-04-20T07:55:03.112Z,14.65
2023-04-20T07:57:31.632Z,15.88
2023-04-20T07:59:58.730Z,16.90
2023-04-20T08:02:25.916Z,15.70
2023-04-20T08:04:53.206Z,15.02
2023-04-20T08:07:20.812Z,16.98
2023-04-20T08:09:47.763Z,13.10
2023-04-20T08:12:14.784Z,15.30
2023-04-20T08:14:41.697Z,14.68
2023-04-20T08:17:08.653Z,13.25
2023-04-20T08:19:36.238Z,15.77
2023-04-20T08:22:05.480Z,15.27
2023-04-20T08:24:32.484Z,14.27
2023-04-20T08:26:59.521Z,13.88
2023-04-20T08:29:26.581Z,13.75
2023-04-20T08:31:53.760Z,15.20
2023-04-20T08:34:20.770Z,14.02
2023-04-20T08:36:48.543Z,15.57
2023-04-20T08:39:21.798Z,14.68
2023-04-20T08:41:53.695Z,12.88
2023-04-20T08:44:20.883Z,14.77
2023-04-20T08:46:49.044Z,15.23
2023-04-20T08:49:17.715Z,15.18
2023-04-20T08:51:46.079Z,13.00
2023-04-20T08:54:14.095Z,14.68
2023-04-20T08:56:44.138Z,12.05
2023-04-20T08:59:14.078Z,13.90
2023-04-20T09:01:43.125Z,15.27
2023-04-20T09:04:24.252Z,14.52
2023-04-20T09:06:54.225Z,11.98
2023-04-20T09:09:22.903Z,14.98
2023-04-20T09:12:02.448Z,15.93
2023-04-20T09:14:29.672Z,15.02
2023-04-20T09:17:02.376Z,14.57
2023-04-20T09:19:31.099Z,13.95
2023-04-20T09:21:59.867Z,15.95
2023-04-20T09:24:37.828Z,12.77
2023-04-20T09:27:18.973Z,11.15
2023-04-20T09:30:01.096Z,12.95
2023-04-20T09:32:29.094Z,12.95
2023-04-20T09:34:57.016Z,13.77
2023-04-20T09:37:25.527Z,13.35
2023-04-20T09:39:59.557Z,14.10
2023-04-20T09:42:28.529Z,13.65
2023-04-20T09:44:56.052Z,14.85
2023-04-20T09:47:25.912Z,16.90
2023-04-20T09:49:54.334Z,15.95
2023-04-20T09:52:22.680Z,16.25
2023-04-20T09:54:51.556Z,15.27
2023-04-20T09:57:19.692Z,17.63
2023-04-20T09:59:47.443Z,14.85
2023-04-20T10:02:14.921Z,17.80
2023-04-20T10:04:54.380Z,17.05
2023-04-20T10:07:29.936Z,25.55
2023-04-20T10:12:36.548Z,15.38
2023-04-20T10:15:04.371Z,14.63
2023-04-20T10:17:32.683Z,12.93
2023-04-20T10:19:59.859Z,14.60
2023-04-20T10:22:33.061Z,15.68
2023-04-20T10:25:01.322Z,14.45
2023-04-20T10:27:28.917Z,16.00
2023-04-20T10:29:55.944Z,11.48
2023-04-20T10:32:28.132Z,11.70
2023-04-20T10:35:10.519Z,14.20
2023-04-20T10:37:51.121Z,13.10
2023-04-20T10:40:28.090Z,12.05
2023-04-20T10:42:55.069Z,12.73
2023-04-20T10:45:33.625Z,11.98
2023-04-20T10:48:09.853Z,10.82
2023-04-20T10:50:37.057Z,12.70
2023-04-20T10:53:05.389Z,12.32
2023-04-20T10:55:32.382Z,11.23
2023-04-20T10:57:59.281Z,12.07
2023-04-20T11:00:28.188Z,9.95
2023-04-20T11:02:57.248Z,11.75
2023-04-20T11:05:27.524Z,10.43
2023-04-20T11:07:56.225Z,10.57
2023-04-20T11:10:25.835Z,11.48
2023-04-20T11:12:53.214Z,11.38
2023-04-20T11:15:30.585Z,12.20
2023-04-20T11:18:07.218Z,38.38
2023-04-20T11:20:34.432Z,10.38
2023-04-20T11:23:01.402Z,12.43
2023-04-20T11:25:28.434Z,10.93
2023-04-20T11:28:06.444Z,11.93
2023-04-20T11:30:41.727Z,9.30
2023-04-20T11:33:10.452Z,10.80
2023-04-20T11:35:38.896Z,12.82
2023-04-20T11:38:06.139Z,11.32
2023-04-20T11:40:33.388Z,9.20
2023-04-20T11:43:00.714Z,10.13
2023-04-20T11:45:31.126Z,9.48
2023-04-20T11:47:58.298Z,14.23
2023-04-20T11:50:25.741Z,11.27
2023-04-20T11:52:52.775Z,9.40
2023-04-20T11:55:19.878Z,9.63
2023-04-20T11:57:46.836Z,10.07
2023-04-20T12:00:15.150Z,11.82
2023-04-20T12:02:42.376Z,9.57
2023-04-20T12:05:09.752Z,11.15
2023-04-20T12:07:36.893Z,10.27
2023-04-20T12:10:05.058Z,9.75
2023-04-20T12:12:32.105Z,11.02
2023-04-20T12:14:59.037Z,9.50
2023-04-20T12:17:26.450Z,11.55
2023-04-20T12:19:53.375Z,11.00
2023-04-20T12:22:20.335Z,10.32
2023-04-20T12:24:47.250Z,10.15
2023-04-20T12:27:14.147Z,9.95
2023-04-20T12:29:41.092Z,11.70
2023-04-20T12:32:08.029Z,9.63
2023-04-20T12:34:34.933Z,10.00
2023-04-20T12:37:02.182Z,11.30
2023-04-20T12:39:29.171Z,11.32
2023-04-20T12:41:58.096Z,9.60
2023-04-20T12:44:25.020Z,8.68
2023-04-20T12:46:52.293Z,9.43
2023-04-20T12:49:19.594Z,9.25
2023-04-20T12:51:46.781Z,8.63
2023-04-20T12:54:13.759Z,9.32
2023-04-20T12:56:40.686Z,10.13
2023-04-20T12:59:07.623Z,7.55
2023-04-20T13:01:34.847Z,9.02
2023-04-20T13:04:02.164Z,9.48
2023-04-20T13:06:29.262Z,9.05
2023-04-20T13:08:56.243Z,9.65
2023-04-20T13:11:23.899Z,9.50
2023-04-20T13:13:51.820Z,8.40
2023-04-20T13:16:18.781Z,10.48
2023-04-20T13:18:45.875Z,12.02
2023-04-20T13:21:12.825Z,10.82
2023-04-20T13:23:40.110Z,10.20
2023-04-20T13:26:07.580Z,10.93
2023-04-20T13:28:34.761Z,10.90
2023-04-20T13:31:01.791Z,8.95
2023-04-20T13:33:28.761Z,10.80
2023-04-20T13:35:55.740Z,8.98
2023-04-20T13:38:22.682Z,51.72
2023-04-20T13:40:49.638Z,27.60
2023-04-20T13:43:16.737Z,9.77
2023-04-20T13:45:43.694Z,11.63
2023-04-20T13:48:10.687Z,10.45
2023-04-20T13:50:37.823Z,13.23
2023-04-20T13:53:04.731Z,11.18
2023-04-20T13:55:32.013Z,13.55
2023-04-20T13:57:59.011Z,12.55
2023-04-20T14:00:26.252Z,11.35
2023-04-20T14:02:53.453Z,12.32
2023-04-20T14:05:20.728Z,11.52
2023-04-20T14:07:47.734Z,9.70
2023-04-20T14:10:15.254Z,9.32
2023-04-20T14:12:42.269Z,11.35
2023-04-20T14:15:09.659Z,13.75
2023-04-20T14:17:36.700Z,11.48
2023-04-20T14:20:04.178Z,12.88
2023-04-20T14:22:36.043Z,12.02
2023-04-20T14:25:04.922Z,11.52
2023-04-20T14:27:32.367Z,12.27
2023-04-20T14:29:59.373Z,8.93
2023-04-20T14:32:26.279Z,9.15
2023-04-20T14:34:53.319Z,10.55
2023-04-20T14:37:20.272Z,10.27
2023-04-20T14:39:49.520Z,11.32
2023-04-20T14:42:16.558Z,11.45
2023-04-20T14:44:43.468Z,10.77
2023-04-20T14:47:10.447Z,8.50
2023-04-20T14:49:37.413Z,10.45
2023-04-20T14:52:04.628Z,12.95
2023-04-20T14:54:31.607Z,11.90
2023-04-20T14:56:58.612Z,11.45
2023-04-20T14:59:27.006Z,12.38
2023-04-20T15:02:02.390Z,10.05
2023-04-20T15:04:31.070Z,9.52
2023-04-20T15:06:58.322Z,13.25
2023-04-20T15:09:25.472Z,12.18
2023-04-20T15:11:52.440Z,10.90
2023-04-20T15:14:20.377Z,10.20
2023-04-20T15:16:47.564Z,8.32
2023-04-20T15:19:14.551Z,12.10
2023-04-20T15:21:42.790Z,11.25
2023-04-20T15:24:11.549Z,12.80
2023-04-20T15:26:38.502Z,11.23
2023-04-20T15:29:05.562Z,12.65
2023-04-20T15:31:32.621Z,9.38
2023-04-20T15:34:00.238Z,9.98
2023-04-20T15:36:27.540Z,12.55
2023-04-20T15:38:56.989Z,10.25
2023-04-20T15:41:24.819Z,12.63
2023-04-20T15:43:51.862Z,10.15
2023-04-20T15:46:23.274Z,10.70
2023-04-20T15:48:50.414Z,12.30
2023-04-20T15:51:20.100Z,11.77
2023-04-20T15:53:50.874Z,12.98
2023-04-20T15:56:22.577Z,12.25
2023-04-20T15:58:52.824Z,12.88
2023-04-20T16:01:20.032Z,13.35
2023-04-20T16:03:48.312Z,11.60
2023-04-20T16:06:15.808Z,9.48
2023-04-20T16:08:42.805Z,11.50
2023-04-20T16:11:09.731Z,9.60
2023-04-20T16:13:36.894Z,9.68
2023-04-20T16:16:04.187Z,10.48
2023-04-20T16:18:32.286Z,9.93
2023-04-20T16:20:59.351Z,11.88
2023-04-20T16:23:26.449Z,10.15
2023-04-20T16:25:53.450Z,12.25
2023-04-20T16:28:20.497Z,10.23
2023-04-20T16:30:47.423Z,10.48
2023-04-20T16:33:14.902Z,11.40
2023-04-20T16:35:41.871Z,9.55
2023-04-20T16:38:10.723Z,14.52
2023-04-20T16:40:37.885Z,12.23
2023-04-20T16:43:04.940Z,10.77
2023-04-20T16:45:33.237Z,11.13
2023-04-20T16:48:00.696Z,9.43
2023-04-20T16:50:28.130Z,12.07
2023-04-20T16:52:55.188Z,11.88
2023-04-20T16:55:22.174Z,14.98
2023-04-20T16:57:49.275Z,50.47
2023-04-20T17:00:16.782Z,11.60
2023-04-20T17:02:43.944Z,10.60
2023-04-20T17:05:11.122Z,10.82
2023-04-20T17:07:38.164Z,11.68
2023-04-20T17:10:06.193Z,11.68
2023-04-20T17:12:33.192Z,11.05
2023-04-20T17:15:00.722Z,10.70
2023-04-20T17:17:28.298Z,9.20
2023-04-20T17:19:55.481Z,8.70
2023-04-20T17:22:22.546Z,7.82
2023-04-20T17:24:49.618Z,4.35
2023-04-20T17:27:16.586Z,4.78
2023-04-20T17:29:44.813Z,6.00
2023-04-20T17:32:12.206Z,5.28
2023-04-20T17:34:40.042Z,3.67
2023-04-20T17:37:07.267Z,4.63
2023-04-20T17:39:34.290Z,3.53
2023-04-20T17:42:01.604Z,2.78
2023-04-20T17:44:28.532Z,4.88
2023-04-20T17:46:55.818Z,6.22
2023-04-20T17:49:22.767Z,5.53
2023-04-20T17:51:49.736Z,3.88
2023-04-20T17:54:16.982Z,3.17
2023-04-20T17:56:44.254Z,3.92
2023-04-20T17:59:12.225Z,13.23
2023-04-20T18:01:39.465Z,26.15
2023-04-20T18:04:06.870Z,4.55
2023-04-20T18:06:34.361Z,4.32
2023-04-20T18:09:01.550Z,4.78
2023-04-20T18:11:28.515Z,4.65
2023-04-20T18:13:57.756Z,3.63
2023-04-20T18:16:24.802Z,4.35
2023-04-20T18:18:52.581Z,4.97
2023-04-20T18:21:19.493Z,4.93
2023-04-20T18:23:49.114Z,4.85
2023-04-20T18:26:17.725Z,5.82
2023-04-20T18:28:45.360Z,4.60
2023-04-20T18:31:12.972Z,4.15
2023-04-20T18:33:40.148Z,6.22
2023-04-20T18:36:07.532Z,4.70
2023-04-20T18:38:35.277Z,2.88
2023-04-20T18:41:02.407Z,3.58
2023-04-20T18:43:29.332Z,3.33
2023-04-20T18:45:56.720Z,3.60
2023-04-20T18:48:23.609Z,3.88
2023-04-20T18:50:51.050Z,4.05
2023-04-20T18:53:18.060Z,3.25
2023-04-20T18:55:44.968Z,5.93
2023-04-20T18:58:11.949Z,4.15
2023-04-20T19:00:38.938Z,3.83
2023-04-20T19:03:06.238Z,3.97
2023-04-20T19:05:33.499Z,5.22
2023-04-20T19:08:00.538Z,6.45
2023-04-20T19:10:27.558Z,3.40
2023-04-20T19:12:55.766Z,3.58
2023-04-20T19:15:25.679Z,5.05
2023-04-20T19:17:56.436Z,4.43
2023-04-20T19:20:24.713Z,6.22
2023-04-20T19:22:51.897Z,4.75
2023-04-20T19:25:20.329Z,13.20
2023-04-20T19:27:47.392Z,16.15
2023-04-20T19:30:14.532Z,4.78
2023-04-20T19:32:41.529Z,5.68
2023-04-20T19:35:08.545Z,5.35
2023-04-20T19:37:35.553Z,6.25
2023-04-20T19:40:04.511Z,6.43
2023-04-20T19:42:31.721Z,4.30
2023-04-20T19:44:58.999Z,5.03
2023-04-20T19:47:26.142Z,5.07
2023-04-20T19:49:53.214Z,5.10
2023-04-20T19:52:20.204Z,4.00
2023-04-20T19:54:47.286Z,6.50
2023-04-20T19:57:14.425Z,3.92
2023-04-20T19:59:42.493Z,5.03
2023-04-20T20:02:09.541Z,6.30
2023-04-20T20:04:37.797Z,7.78
2023-04-20T20:07:04.980Z,6.82
2023-04-20T20:09:31.870Z,6.55
2023-04-20T20:12:01.102Z,5.18
2023-04-20T20:14:28.122Z,5.75
2023-04-20T20:16:56.606Z,5.45
2023-04-20T20:19:23.918Z,5.70
2023-04-20T20:21:51.560Z,4.80
2023-04-20T20:24:18.832Z,3.70
2023-04-20T20:26:45.735Z,4.60
2023-04-20T20:29:12.667Z,6.40
2023-04-20T20:31:39.585Z,4.10
2023-04-20T20:34:08.997Z,4.88
2023-04-20T20:36:36.212Z,5.22
2023-04-20T20:39:05.076Z,4.00
2023-04-20T20:41:32.550Z,5.22
2023-04-20T20:43:59.745Z,3.75
2023-04-20T20:46:26.897Z,6.13
2023-04-20T20:48:55.179Z,2.95
2023-04-20T20:51:22.236Z,2.85
2023-04-20T20:53:49.186Z,3.75
2023-04-20T20:56:16.257Z,2.88
2023-04-20T20:58:43.220Z,3.80
2023-04-20T21:03:54.775Z,3.40
2023-04-20T21:06:21.973Z,2.58
2023-04-20T21:08:49.125Z,2.72
2023-04-20T21:11:16.059Z,1.77
2023-04-20T21:13:42.990Z,2.58
2023-04-20T21:16:10.008Z,3.90
2023-04-20T21:18:37.090Z,4.15
2023-04-20T21:21:04.220Z,8.10
2023-04-20T21:23:31.132Z,4.78
2023-04-20T21:25:58.206Z,3.13
2023-04-20T21:28:25.114Z,3.22
2023-04-20T21:30:52.021Z,3.97
2023-04-20T21:33:19.006Z,4.70
2023-04-20T21:35:46.082Z,3.85
2023-04-20T21:38:13.072Z,5.78
2023-04-20T21:40:40.055Z,5.97
2023-04-20T21:43:07.014Z,3.70
2023-04-20T21:45:35.587Z,3.70
2023-04-20T21:48:03.276Z,2.78
2023-04-20T21:50:30.222Z,4.10
2023-04-20T21:52:57.116Z,2.45
2023-04-20T21:55:24.107Z,1.65
2023-04-20T21:57:51.003Z,3.08
2023-04-20T22:00:18.215Z,1.88
2023-04-20T22:02:45.580Z,3.67
2023-04-20T22:05:13.573Z,2.40
2023-04-20T22:07:40.864Z,2.65
2023-04-20T22:10:08.508Z,2.65
2023-04-20T22:12:40.329Z,3.50
2023-04-20T22:15:09.893Z,2.75
2023-04-20T22:17:37.911Z,3.47
2023-04-20T22:20:07.944Z,7.75
2023-04-20T22:22:35.778Z,3.83
2023-04-20T22:25:04.607Z,5.00
2023-04-20T22:27:32.822Z,2.95
2023-04-20T22:30:00.520Z,3.35
2023-04-20T22:32:27.805Z,3.15
2023-04-20T22:34:54.808Z,7.13
2023-04-20T22:37:21.737Z,3.85
2023-04-20T22:39:48.920Z,2.10
2023-04-20T22:42:16.116Z,3.35
2023-04-20T22:44:43.135Z,5.13
2023-04-20T22:47:10.380Z,3.80
2023-04-20T22:49:37.564Z,3.20
2023-04-20T22:52:04.641Z,4.30
2023-04-20T22:54:31.713Z,3.25
2023-04-20T22:56:58.833Z,3.28
2023-04-20T22:59:26.004Z,4.32
2023-04-20T23:01:53.180Z,3.33
2023-04-20T23:04:20.374Z,3.28
2023-04-20T23:06:47.410Z,4.65
2023-04-20T23:09:17.528Z,4.05
2023-04-20T23:11:47.235Z,3.45
2023-04-20T23:14:14.290Z,4.57
2023-04-20T23:16:41.538Z,3.30
2023-04-20T23:19:08.530Z,3.03
2023-04-20T23:21:35.651Z,2.58
2023-04-20T23:24:02.735Z,3.10
2023-04-20T23:26:29.992Z,3.20
2023-04-20T23:28:57.117Z,2.03
2023-04-20T23:31:24.641Z,4.50
2023-04-20T23:33:51.852Z,3.47
2023-04-20T23:36:18.938Z,2.45
2023-04-20T23:38:46.007Z,3.00
2023-04-20T23:41:14.614Z,3.03
2023-04-20T23:43:42.032Z,2.47
2023-04-20T23:46:09.410Z,3.53
2023-04-20T23:48:36.697Z,3.33
2023-04-20T23:51:03.871Z,3.50
2023-04-20T23:53:30.893Z,3.42
2023-04-20T23:55:59.872Z,3.25
2023-04-20T23:58:28.091Z,3.60
